sensor_id;sensor_type;location;lat;lon;timestamp;temperature;humidity
18207;DHT22;9229;52.354;20.886;2024-01-27T00:03:48;4.00;99.90
18207;DHT22;9229;52.354;20.886;2024-01-27T00:08:52;4.20;99.90
18207;DHT22;9229;52.354;20.886;2024-01-27T00:13:58;4.30;99.90
18207;DHT22;9229;52.354;20.886;2024-01-27T00:19:06;4.30;99.90
18207;DHT22;9229;52.354;20.886;2024-01-27T00:24:08;4.30;99.90
18207;DHT22;9229;52.354;20.886;2024-01-27T00:29:10;4.30;99.90
18207;DHT22;9229;52.354;20.886;2024-01-27T00:34:13;4.40;99.90
18207;DHT22;9229;52.354;20.886;2024-01-27T00:39:15;4.40;99.90
18207;DHT22;9229;52.354;20.886;2024-01-27T00:44:17;4.40;99.90
18207;DHT22;9229;52.354;20.886;2024-01-27T00:49:23;4.40;99.90
18207;DHT22;9229;52.354;20.886;2024-01-27T00:54:26;4.40;99.90
18207;DHT22;9229;52.354;20.886;2024-01-27T00:59:28;4.50;99.90
18207;DHT22;9229;52.354;20.886;2024-01-27T01:04:32;4.50;99.90
18207;DHT22;9229;52.354;20.886;2024-01-27T01:09:35;4.40;99.90
18207;DHT22;9229;52.354;20.886;2024-01-27T01:14:43;4.40;99.90
18207;DHT22;9229;52.354;20.886;2024-01-27T01:19:49;4.40;99.90
18207;DHT22;9229;52.354;20.886;2024-01-27T01:24:51;4.30;99.90
18207;DHT22;9229;52.354;20.886;2024-01-27T01:29:53;4.30;99.90
18207;DHT22;9229;52.354;20.886;2024-01-27T01:34:57;4.20;99.90
18207;DHT22;9229;52.354;20.886;2024-01-27T01:39:59;4.20;99.90
18207;DHT22;9229;52.354;20.886;2024-01-27T01:45:01;4.20;99.90
18207;DHT22;9229;52.354;20.886;2024-01-27T01:50:08;4.20;99.90
18207;DHT22;9229;52.354;20.886;2024-01-27T01:55:11;4.20;99.90
18207;DHT22;9229;52.354;20.886;2024-01-27T02:00:14;4.20;99.90
18207;DHT22;9229;52.354;20.886;2024-01-27T02:05:22;4.30;99.90
18207;DHT22;9229;52.354;20.886;2024-01-27T02:10:33;4.30;99.90
18207;DHT22;9229;52.354;20.886;2024-01-27T02:15:40;4.30;99.90
18207;DHT22;9229;52.354;20.886;2024-01-27T02:20:46;4.30;99.90
18207;DHT22;9229;52.354;20.886;2024-01-27T02:25:51;4.40;99.90
18207;DHT22;9229;52.354;20.886;2024-01-27T02:30:53;4.40;99.90
18207;DHT22;9229;52.354;20.886;2024-01-27T02:35:55;4.40;99.90
18207;DHT22;9229;52.354;20.886;2024-01-27T02:40:58;4.40;99.90
18207;DHT22;9229;52.354;20.886;2024-01-27T02:46:06;4.30;99.90
18207;DHT22;9229;52.354;20.886;2024-01-27T02:51:09;4.30;99.90
18207;DHT22;9229;52.354;20.886;2024-01-27T02:56:13;4.40;99.90
18207;DHT22;9229;52.354;20.886;2024-01-27T03:01:15;4.40;99.90
18207;DHT22;9229;52.354;20.886;2024-01-27T03:06:17;4.40;99.90
18207;DHT22;9229;52.354;20.886;2024-01-27T03:11:23;4.40;99.90
18207;DHT22;9229;52.354;20.886;2024-01-27T03:16:26;4.50;99.90
18207;DHT22;9229;52.354;20.886;2024-01-27T03:21:33;4.50;99.90
18207;DHT22;9229;52.354;20.886;2024-01-27T03:26:39;4.50;99.90
18207;DHT22;9229;52.354;20.886;2024-01-27T03:31:42;4.50;99.90
18207;DHT22;9229;52.354;20.886;2024-01-27T03:36:48;4.50;99.90
18207;DHT22;9229;52.354;20.886;2024-01-27T03:41:52;4.50;99.90
18207;DHT22;9229;52.354;20.886;2024-01-27T03:46:54;4.50;99.90
18207;DHT22;9229;52.354;20.886;2024-01-27T03:51:58;4.40;99.90
18207;DHT22;9229;52.354;20.886;2024-01-27T03:57:08;4.50;99.90
18207;DHT22;9229;52.354;20.886;2024-01-27T04:02:10;4.50;99.90
18207;DHT22;9229;52.354;20.886;2024-01-27T04:07:16;4.50;99.90
18207;DHT22;9229;52.354;20.886;2024-01-27T04:12:22;4.50;99.90
18207;DHT22;9229;52.354;20.886;2024-01-27T04:17:24;4.40;99.90
18207;DHT22;9229;52.354;20.886;2024-01-27T04:22:26;4.40;99.90
18207;DHT22;9229;52.354;20.886;2024-01-27T04:27:36;4.50;99.90
18207;DHT22;9229;52.354;20.886;2024-01-27T04:32:40;4.50;99.90
18207;DHT22;9229;52.354;20.886;2024-01-27T04:37:42;4.50;99.90
18207;DHT22;9229;52.354;20.886;2024-01-27T04:42:47;4.50;99.90
18207;DHT22;9229;52.354;20.886;2024-01-27T04:47:49;4.40;99.90
18207;DHT22;9229;52.354;20.886;2024-01-27T04:52:53;4.50;99.90
18207;DHT22;9229;52.354;20.886;2024-01-27T04:58:00;4.40;99.90
18207;DHT22;9229;52.354;20.886;2024-01-27T05:03:04;4.40;99.90
18207;DHT22;9229;52.354;20.886;2024-01-27T05:08:09;4.30;99.90
18207;DHT22;9229;52.354;20.886;2024-01-27T05:13:15;4.30;99.90
18207;DHT22;9229;52.354;20.886;2024-01-27T05:18:17;4.30;99.90
18207;DHT22;9229;52.354;20.886;2024-01-27T05:23:19;4.20;99.90
18207;DHT22;9229;52.354;20.886;2024-01-27T05:28:24;4.20;99.90
18207;DHT22;9229;52.354;20.886;2024-01-27T05:33:27;4.20;99.90
18207;DHT22;9229;52.354;20.886;2024-01-27T05:38:30;4.20;99.90
18207;DHT22;9229;52.354;20.886;2024-01-27T05:43:35;4.20;99.90
18207;DHT22;9229;52.354;20.886;2024-01-27T05:48:40;4.20;99.90
18207;DHT22;9229;52.354;20.886;2024-01-27T05:53:42;4.20;99.90
18207;DHT22;9229;52.354;20.886;2024-01-27T05:58:49;4.30;99.90
18207;DHT22;9229;52.354;20.886;2024-01-27T06:03:51;4.30;99.90
18207;DHT22;9229;52.354;20.886;2024-01-27T06:08:55;4.30;99.90
18207;DHT22;9229;52.354;20.886;2024-01-27T06:14:03;4.20;99.90
18207;DHT22;9229;52.354;20.886;2024-01-27T06:19:07;4.20;99.90
18207;DHT22;9229;52.354;20.886;2024-01-27T06:24:11;4.30;99.90
18207;DHT22;9229;52.354;20.886;2024-01-27T06:29:15;4.20;99.90
18207;DHT22;9229;52.354;20.886;2024-01-27T06:34:18;4.20;99.90
18207;DHT22;9229;52.354;20.886;2024-01-27T06:39:22;4.20;99.90
18207;DHT22;9229;52.354;20.886;2024-01-27T06:44:27;4.10;99.90
18207;DHT22;9229;52.354;20.886;2024-01-27T06:49:29;4.00;99.90
18207;DHT22;9229;52.354;20.886;2024-01-27T06:54:32;3.90;99.90
18207;DHT22;9229;52.354;20.886;2024-01-27T06:59:40;3.90;99.90
18207;DHT22;9229;52.354;20.886;2024-01-27T07:04:42;3.90;99.90
18207;DHT22;9229;52.354;20.886;2024-01-27T07:09:44;4.00;99.90
18207;DHT22;9229;52.354;20.886;2024-01-27T07:14:48;3.80;99.90
18207;DHT22;9229;52.354;20.886;2024-01-27T07:19:53;3.80;99.90
18207;DHT22;9229;52.354;20.886;2024-01-27T07:24:55;3.80;99.90
18207;DHT22;9229;52.354;20.886;2024-01-27T07:29:58;3.80;99.90
18207;DHT22;9229;52.354;20.886;2024-01-27T07:35:02;3.80;99.90
18207;DHT22;9229;52.354;20.886;2024-01-27T07:40:07;3.80;99.90
18207;DHT22;9229;52.354;20.886;2024-01-27T07:45:12;3.90;99.90
18207;DHT22;9229;52.354;20.886;2024-01-27T07:50:14;3.90;99.90
18207;DHT22;9229;52.354;20.886;2024-01-27T07:55:17;3.90;99.90
18207;DHT22;9229;52.354;20.886;2024-01-27T08:00:23;3.90;99.90
18207;DHT22;9229;52.354;20.886;2024-01-27T08:05:25;4.00;99.90
18207;DHT22;9229;52.354;20.886;2024-01-27T08:10:29;4.00;99.90
18207;DHT22;9229;52.354;20.886;2024-01-27T08:15:33;4.00;99.90
18207;DHT22;9229;52.354;20.886;2024-01-27T08:20:35;4.10;99.90
18207;DHT22;9229;52.354;20.886;2024-01-27T08:25:38;4.00;99.90
18207;DHT22;9229;52.354;20.886;2024-01-27T08:30:43;4.10;99.90
18207;DHT22;9229;52.354;20.886;2024-01-27T08:35:46;4.10;99.90
18207;DHT22;9229;52.354;20.886;2024-01-27T08:40:49;4.10;99.90
18207;DHT22;9229;52.354;20.886;2024-01-27T08:45:52;4.10;99.90
18207;DHT22;9229;52.354;20.886;2024-01-27T08:50:57;4.10;99.90
18207;DHT22;9229;52.354;20.886;2024-01-27T08:55:59;4.00;99.90
18207;DHT22;9229;52.354;20.886;2024-01-27T09:01:09;4.10;99.90
18207;DHT22;9229;52.354;20.886;2024-01-27T09:06:15;4.10;99.90
18207;DHT22;9229;52.354;20.886;2024-01-27T09:11:19;4.10;99.90
18207;DHT22;9229;52.354;20.886;2024-01-27T09:16:24;4.10;99.90
18207;DHT22;9229;52.354;20.886;2024-01-27T09:21:26;4.10;99.90
18207;DHT22;9229;52.354;20.886;2024-01-27T09:26:31;4.20;99.90
18207;DHT22;9229;52.354;20.886;2024-01-27T09:31:35;4.10;99.90
18207;DHT22;9229;52.354;20.886;2024-01-27T09:36:37;4.10;99.90
18207;DHT22;9229;52.354;20.886;2024-01-27T09:41:40;4.20;99.90
18207;DHT22;9229;52.354;20.886;2024-01-27T09:46:46;4.20;99.90
18207;DHT22;9229;52.354;20.886;2024-01-27T09:51:50;4.10;99.90
18207;DHT22;9229;52.354;20.886;2024-01-27T09:56:58;4.10;99.90
18207;DHT22;9229;52.354;20.886;2024-01-27T10:02:02;4.20;99.90
18207;DHT22;9229;52.354;20.886;2024-01-27T10:07:06;4.20;99.90
18207;DHT22;9229;52.354;20.886;2024-01-27T10:12:13;4.20;99.90
18207;DHT22;9229;52.354;20.886;2024-01-27T10:17:22;4.20;99.90
18207;DHT22;9229;52.354;20.886;2024-01-27T10:22:26;4.40;99.90
18207;DHT22;9229;52.354;20.886;2024-01-27T10:27:28;4.50;99.90
18207;DHT22;9229;52.354;20.886;2024-01-27T10:32:32;4.50;99.90
18207;DHT22;9229;52.354;20.886;2024-01-27T10:37:34;4.50;99.90
18207;DHT22;9229;52.354;20.886;2024-01-27T10:42:41;4.40;99.90
18207;DHT22;9229;52.354;20.886;2024-01-27T10:48:00;4.40;99.90
18207;DHT22;9229;52.354;20.886;2024-01-27T10:53:04;4.30;99.90
18207;DHT22;9229;52.354;20.886;2024-01-27T10:58:12;4.30;99.90
18207;DHT22;9229;52.354;20.886;2024-01-27T11:03:18;4.10;99.90
18207;DHT22;9229;52.354;20.886;2024-01-27T11:08:25;4.10;99.90
18207;DHT22;9229;52.354;20.886;2024-01-27T11:13:32;4.10;99.90
18207;DHT22;9229;52.354;20.886;2024-01-27T11:18:38;4.10;99.90
18207;DHT22;9229;52.354;20.886;2024-01-27T11:23:43;4.10;99.90
18207;DHT22;9229;52.354;20.886;2024-01-27T11:28:48;4.10;99.90
18207;DHT22;9229;52.354;20.886;2024-01-27T11:33:54;4.10;99.90
18207;DHT22;9229;52.354;20.886;2024-01-27T11:38:56;4.00;99.90
18207;DHT22;9229;52.354;20.886;2024-01-27T11:44:00;4.00;99.90
18207;DHT22;9229;52.354;20.886;2024-01-27T11:49:04;4.00;99.90
18207;DHT22;9229;52.354;20.886;2024-01-27T11:54:10;3.90;99.90
18207;DHT22;9229;52.354;20.886;2024-01-27T11:59:14;3.80;99.90
18207;DHT22;9229;52.354;20.886;2024-01-27T12:04:18;3.80;99.90
18207;DHT22;9229;52.354;20.886;2024-01-27T12:09:22;3.80;99.90
18207;DHT22;9229;52.354;20.886;2024-01-27T12:14:25;3.80;99.90
18207;DHT22;9229;52.354;20.886;2024-01-27T12:19:28;3.70;99.90
18207;DHT22;9229;52.354;20.886;2024-01-27T12:24:30;3.70;99.90
18207;DHT22;9229;52.354;20.886;2024-01-27T12:29:33;3.80;99.90
18207;DHT22;9229;52.354;20.886;2024-01-27T12:34:41;3.70;99.90
18207;DHT22;9229;52.354;20.886;2024-01-27T12:39:44;3.80;99.90
18207;DHT22;9229;52.354;20.886;2024-01-27T12:44:46;3.90;99.90
18207;DHT22;9229;52.354;20.886;2024-01-27T12:49:50;3.90;99.90
18207;DHT22;9229;52.354;20.886;2024-01-27T12:54:53;4.00;99.90
18207;DHT22;9229;52.354;20.886;2024-01-27T12:59:55;4.00;99.90
18207;DHT22;9229;52.354;20.886;2024-01-27T13:04:59;4.00;99.90
18207;DHT22;9229;52.354;20.886;2024-01-27T13:10:00;4.10;99.90
18207;DHT22;9229;52.354;20.886;2024-01-27T13:15:05;4.10;99.90
18207;DHT22;9229;52.354;20.886;2024-01-27T13:20:14;4.10;99.90
18207;DHT22;9229;52.354;20.886;2024-01-27T13:25:19;4.20;99.90
18207;DHT22;9229;52.354;20.886;2024-01-27T13:30:21;4.10;99.90
18207;DHT22;9229;52.354;20.886;2024-01-27T13:35:24;4.30;99.90
18207;DHT22;9229;52.354;20.886;2024-01-27T13:40:27;4.30;99.90
18207;DHT22;9229;52.354;20.886;2024-01-27T13:45:29;4.40;99.90
18207;DHT22;9229;52.354;20.886;2024-01-27T13:50:33;4.40;99.90
18207;DHT22;9229;52.354;20.886;2024-01-27T13:55:41;4.40;99.90
18207;DHT22;9229;52.354;20.886;2024-01-27T14:00:46;4.30;99.90
18207;DHT22;9229;52.354;20.886;2024-01-27T14:05:51;4.20;99.90
18207;DHT22;9229;52.354;20.886;2024-01-27T14:10:54;4.10;99.90
18207;DHT22;9229;52.354;20.886;2024-01-27T14:15:59;4.00;99.90
18207;DHT22;9229;52.354;20.886;2024-01-27T14:21:05;3.90;99.90
18207;DHT22;9229;52.354;20.886;2024-01-27T14:26:07;3.90;99.90
18207;DHT22;9229;52.354;20.886;2024-01-27T14:31:15;3.90;99.90
18207;DHT22;9229;52.354;20.886;2024-01-27T14:36:23;3.90;99.90
18207;DHT22;9229;52.354;20.886;2024-01-27T14:41:27;3.90;99.90
18207;DHT22;9229;52.354;20.886;2024-01-27T14:46:30;3.80;99.90
18207;DHT22;9229;52.354;20.886;2024-01-27T14:51:35;3.80;99.90
18207;DHT22;9229;52.354;20.886;2024-01-27T14:56:40;3.80;99.90
18207;DHT22;9229;52.354;20.886;2024-01-27T15:01:43;3.70;99.90
18207;DHT22;9229;52.354;20.886;2024-01-27T15:06:53;3.70;99.90
18207;DHT22;9229;52.354;20.886;2024-01-27T15:11:58;3.60;99.90
18207;DHT22;9229;52.354;20.886;2024-01-27T15:17:02;3.50;99.90
18207;DHT22;9229;52.354;20.886;2024-01-27T15:22:10;3.30;99.90
18207;DHT22;9229;52.354;20.886;2024-01-27T15:27:13;3.20;99.90
18207;DHT22;9229;52.354;20.886;2024-01-27T15:32:17;3.10;99.90
18207;DHT22;9229;52.354;20.886;2024-01-27T15:37:24;3.00;99.90
18207;DHT22;9229;52.354;20.886;2024-01-27T15:42:26;3.00;99.90
18207;DHT22;9229;52.354;20.886;2024-01-27T15:47:30;2.90;99.90
18207;DHT22;9229;52.354;20.886;2024-01-27T15:52:39;2.80;99.90
18207;DHT22;9229;52.354;20.886;2024-01-27T15:57:44;2.80;99.90
18207;DHT22;9229;52.354;20.886;2024-01-27T16:02:47;2.80;99.90
18207;DHT22;9229;52.354;20.886;2024-01-27T16:07:50;2.70;99.90
18207;DHT22;9229;52.354;20.886;2024-01-27T16:12:53;2.70;99.90
18207;DHT22;9229;52.354;20.886;2024-01-27T16:18:10;2.70;99.90
18207;DHT22;9229;52.354;20.886;2024-01-27T16:23:14;2.70;99.90
18207;DHT22;9229;52.354;20.886;2024-01-27T16:28:16;2.70;99.90
18207;DHT22;9229;52.354;20.886;2024-01-27T16:33:18;2.60;99.90
18207;DHT22;9229;52.354;20.886;2024-01-27T16:38:25;2.60;99.90
18207;DHT22;9229;52.354;20.886;2024-01-27T16:43:30;2.50;99.90
18207;DHT22;9229;52.354;20.886;2024-01-27T16:48:37;2.50;99.90
18207;DHT22;9229;52.354;20.886;2024-01-27T16:53:46;2.50;99.90
18207;DHT22;9229;52.354;20.886;2024-01-27T16:58:51;2.40;99.90
18207;DHT22;9229;52.354;20.886;2024-01-27T17:03:54;2.40;99.90
18207;DHT22;9229;52.354;20.886;2024-01-27T17:09:06;2.40;99.90
18207;DHT22;9229;52.354;20.886;2024-01-27T17:14:10;2.50;99.90
18207;DHT22;9229;52.354;20.886;2024-01-27T17:19:12;2.50;99.90
18207;DHT22;9229;52.354;20.886;2024-01-27T17:24:19;2.50;99.90
18207;DHT22;9229;52.354;20.886;2024-01-27T17:29:21;2.50;99.90
18207;DHT22;9229;52.354;20.886;2024-01-27T17:34:25;2.50;99.90
18207;DHT22;9229;52.354;20.886;2024-01-27T17:39:29;2.60;99.90
18207;DHT22;9229;52.354;20.886;2024-01-27T17:44:33;2.60;99.90
18207;DHT22;9229;52.354;20.886;2024-01-27T17:49:37;2.60;99.90
18207;DHT22;9229;52.354;20.886;2024-01-27T17:54:48;2.60;99.90
18207;DHT22;9229;52.354;20.886;2024-01-27T17:59:53;2.60;99.90
18207;DHT22;9229;52.354;20.886;2024-01-27T18:04:55;2.60;99.90
18207;DHT22;9229;52.354;20.886;2024-01-27T18:10:00;2.60;99.90
18207;DHT22;9229;52.354;20.886;2024-01-27T18:15:05;2.70;99.90
18207;DHT22;9229;52.354;20.886;2024-01-27T18:20:09;2.70;99.90
18207;DHT22;9229;52.354;20.886;2024-01-27T18:25:15;2.70;99.90
18207;DHT22;9229;52.354;20.886;2024-01-27T18:30:19;2.70;99.90
18207;DHT22;9229;52.354;20.886;2024-01-27T18:35:22;2.70;99.90
18207;DHT22;9229;52.354;20.886;2024-01-27T18:40:30;2.70;99.90
18207;DHT22;9229;52.354;20.886;2024-01-27T18:45:35;2.70;99.90
18207;DHT22;9229;52.354;20.886;2024-01-27T18:50:41;2.70;99.90
18207;DHT22;9229;52.354;20.886;2024-01-27T18:55:46;2.70;99.90
18207;DHT22;9229;52.354;20.886;2024-01-27T19:00:49;2.80;99.90
18207;DHT22;9229;52.354;20.886;2024-01-27T19:05:52;2.80;99.90
18207;DHT22;9229;52.354;20.886;2024-01-27T19:10:59;2.80;99.90
18207;DHT22;9229;52.354;20.886;2024-01-27T19:16:01;2.80;99.90
18207;DHT22;9229;52.354;20.886;2024-01-27T19:21:04;2.80;99.90
18207;DHT22;9229;52.354;20.886;2024-01-27T19:26:08;2.80;99.90
18207;DHT22;9229;52.354;20.886;2024-01-27T19:31:13;2.80;99.90
18207;DHT22;9229;52.354;20.886;2024-01-27T19:36:16;2.80;99.90
18207;DHT22;9229;52.354;20.886;2024-01-27T19:41:21;2.90;99.90
18207;DHT22;9229;52.354;20.886;2024-01-27T19:46:30;2.90;99.90
18207;DHT22;9229;52.354;20.886;2024-01-27T19:51:33;2.90;99.90
18207;DHT22;9229;52.354;20.886;2024-01-27T19:56:40;3.00;99.90
18207;DHT22;9229;52.354;20.886;2024-01-27T20:01:44;2.90;99.90
18207;DHT22;9229;52.354;20.886;2024-01-27T20:06:46;3.00;99.90
18207;DHT22;9229;52.354;20.886;2024-01-27T20:11:49;3.00;99.90
18207;DHT22;9229;52.354;20.886;2024-01-27T20:16:51;3.10;99.90
18207;DHT22;9229;52.354;20.886;2024-01-27T20:21:53;3.10;99.90
18207;DHT22;9229;52.354;20.886;2024-01-27T20:26:57;3.10;99.90
18207;DHT22;9229;52.354;20.886;2024-01-27T20:31:59;3.10;99.90
18207;DHT22;9229;52.354;20.886;2024-01-27T20:37:06;3.10;99.90
18207;DHT22;9229;52.354;20.886;2024-01-27T20:42:16;3.10;99.90
18207;DHT22;9229;52.354;20.886;2024-01-27T20:47:18;3.10;99.90
18207;DHT22;9229;52.354;20.886;2024-01-27T20:52:21;3.10;99.90
18207;DHT22;9229;52.354;20.886;2024-01-27T20:57:25;3.10;99.90
18207;DHT22;9229;52.354;20.886;2024-01-27T21:02:42;3.10;99.90
18207;DHT22;9229;52.354;20.886;2024-01-27T21:07:52;3.10;99.90
18207;DHT22;9229;52.354;20.886;2024-01-27T21:12:59;3.10;99.90
18207;DHT22;9229;52.354;20.886;2024-01-27T21:18:02;3.00;99.90
18207;DHT22;9229;52.354;20.886;2024-01-27T21:23:07;3.00;99.90
18207;DHT22;9229;52.354;20.886;2024-01-27T21:28:19;3.00;99.90
18207;DHT22;9229;52.354;20.886;2024-01-27T21:33:22;3.00;99.90
18207;DHT22;9229;52.354;20.886;2024-01-27T21:38:29;3.00;99.90
18207;DHT22;9229;52.354;20.886;2024-01-27T21:43:44;3.10;99.90
18207;DHT22;9229;52.354;20.886;2024-01-27T21:48:47;3.10;99.90
18207;DHT22;9229;52.354;20.886;2024-01-27T21:53:59;3.10;99.90
18207;DHT22;9229;52.354;20.886;2024-01-27T21:59:24;3.00;99.90
18207;DHT22;9229;52.354;20.886;2024-01-27T22:04:29;3.00;99.90
18207;DHT22;9229;52.354;20.886;2024-01-27T22:09:33;3.00;99.90
18207;DHT22;9229;52.354;20.886;2024-01-27T22:14:49;2.90;99.90
18207;DHT22;9229;52.354;20.886;2024-01-27T22:19:53;2.80;99.90
18207;DHT22;9229;52.354;20.886;2024-01-27T22:24:58;2.80;99.90
18207;DHT22;9229;52.354;20.886;2024-01-27T22:30:02;2.80;99.90
18207;DHT22;9229;52.354;20.886;2024-01-27T22:35:08;2.80;99.90
18207;DHT22;9229;52.354;20.886;2024-01-27T22:40:11;2.80;99.90
18207;DHT22;9229;52.354;20.886;2024-01-27T22:45:29;2.80;99.90
18207;DHT22;9229;52.354;20.886;2024-01-27T22:50:31;2.80;99.90
18207;DHT22;9229;52.354;20.886;2024-01-27T22:55:34;2.70;99.90
18207;DHT22;9229;52.354;20.886;2024-01-27T23:00:49;2.80;99.90
18207;DHT22;9229;52.354;20.886;2024-01-27T23:05:54;2.80;99.90
18207;DHT22;9229;52.354;20.886;2024-01-27T23:10:56;2.70;99.90
18207;DHT22;9229;52.354;20.886;2024-01-27T23:16:02;2.80;99.90
18207;DHT22;9229;52.354;20.886;2024-01-27T23:21:04;2.60;99.90
18207;DHT22;9229;52.354;20.886;2024-01-27T23:26:07;2.50;99.90
18207;DHT22;9229;52.354;20.886;2024-01-27T23:31:12;2.40;99.90
18207;DHT22;9229;52.354;20.886;2024-01-27T23:36:14;2.20;99.90
18207;DHT22;9229;52.354;20.886;2024-01-27T23:41:16;2.00;99.90
18207;DHT22;9229;52.354;20.886;2024-01-27T23:46:22;2.10;99.90
18207;DHT22;9229;52.354;20.886;2024-01-27T23:51:28;1.90;99.90
18207;DHT22;9229;52.354;20.886;2024-01-27T23:56:36;2.00;99.90
